Time;durP1;ratioP1;P1;durP2;ratioP2;P2;SDS_P1;SDS_P2;PMS_P1;PMS_P2;Temp;Humidity;BMP_temperature;BMP_pressure;BME280_temperature;BME280_humidity;BME280_pressure;Samples;Min_cycle;Max_cycle;Signal;HPM_P1;HPM_P2
2021/05/27 00:02:09;;;;;;;3.08;1.05;;;13.00;94.30;;;;;;5054592;28;20882;-83
2021/05/27 00:04:37;;;;;;;2.88;1.23;;;12.90;94.60;;;;;;5053026;28;20809;-88
2021/05/27 00:07:05;;;;;;;5.20;1.40;;;12.80;95.10;;;;;;5042950;28;20460;-88
2021/05/27 00:09:32;;;;;;;5.30;1.07;;;12.70;94.30;;;;;;5055250;28;20426;-89
2021/05/27 00:11:59;;;;;;;3.05;1.00;;;12.70;94.40;;;;;;5056419;28;20392;-88
2021/05/27 00:14:26;;;;;;;8.20;1.02;;;12.70;94.90;;;;;;5058038;28;20395;-88
2021/05/27 00:16:54;;;;;;;5.45;1.02;;;12.80;95.00;;;;;;5035946;28;20396;-89
2021/05/27 00:19:21;;;;;;;4.18;1.15;;;12.90;95.50;;;;;;5056426;28;20454;-87
2021/05/27 00:21:48;;;;;;;3.95;1.20;;;13.00;95.10;;;;;;5035316;28;20384;-86
2021/05/27 00:24:15;;;;;;;2.47;1.20;;;13.10;94.80;;;;;;5036164;28;20403;-86
2021/05/27 00:26:43;;;;;;;5.85;1.73;;;13.10;95.20;;;;;;5048016;28;20395;-85
2021/05/27 00:29:10;;;;;;;3.75;1.00;;;13.10;94.90;;;;;;5032638;28;20839;-89
2021/05/27 00:31:37;;;;;;;6.70;0.95;;;13.10;94.60;;;;;;5029528;28;20391;-89
2021/05/27 00:34:04;;;;;;;5.50;1.10;;;13.00;95.40;;;;;;5041836;28;20414;-87
2021/05/27 00:36:31;;;;;;;2.97;1.10;;;13.00;96.00;;;;;;5053589;28;20403;-86
2021/05/27 00:38:59;;;;;;;3.13;0.98;;;13.00;96.10;;;;;;5034106;28;20432;-91
2021/05/27 00:41:26;;;;;;;2.93;1.00;;;13.00;95.70;;;;;;5052215;28;20383;-89
2021/05/27 00:43:53;;;;;;;3.40;0.98;;;13.00;94.70;;;;;;5056361;28;20384;-88
2021/05/27 00:46:20;;;;;;;4.25;0.98;;;13.10;94.60;;;;;;5049235;28;20402;-88
2021/05/27 00:49:02;;;;;;;6.82;1.20;;;13.10;94.70;;;;;;5050609;28;20392;-90
2021/05/27 00:51:29;;;;;;;2.55;0.80;;;13.20;93.90;;;;;;5057359;28;20411;-90
2021/05/27 00:53:57;;;;;;;5.30;1.17;;;13.20;93.50;;;;;;5058147;28;20371;-88
2021/05/27 00:56:25;;;;;;;3.10;0.70;;;13.30;93.40;;;;;;5053649;28;20406;-88
2021/05/27 00:58:53;;;;;;;2.75;0.80;;;13.40;94.10;;;;;;5050642;28;20391;-86
2021/05/27 01:01:20;;;;;;;2.42;0.70;;;13.50;93.80;;;;;;5047478;28;20497;-89
2021/05/27 01:03:47;;;;;;;2.60;0.98;;;13.50;93.30;;;;;;5050786;28;20384;-88
2021/05/27 01:06:14;;;;;;;2.42;0.60;;;13.50;93.20;;;;;;5032908;28;21117;-86
2021/05/27 01:08:41;;;;;;;3.70;0.85;;;13.60;93.90;;;;;;5048097;28;20429;-85
2021/05/27 01:11:08;;;;;;;2.83;0.70;;;13.60;92.80;;;;;;5020469;28;20404;-84
2021/05/27 01:13:35;;;;;;;2.67;0.80;;;13.60;94.00;;;;;;5035400;28;20457;-84
2021/05/27 01:16:02;;;;;;;2.55;0.60;;;13.60;93.70;;;;;;5049731;28;20391;-86
2021/05/27 01:18:29;;;;;;;1.90;0.68;;;13.70;93.20;;;;;;5047348;28;20429;-86
2021/05/27 01:20:58;;;;;;;2.35;0.63;;;13.70;92.40;;;;;;5053774;28;20403;-88
2021/05/27 01:23:27;;;;;;;4.00;0.77;;;13.80;92.90;;;;;;5053902;28;20403;-87
2021/05/27 01:25:57;;;;;;;1.83;0.63;;;13.80;93.30;;;;;;5054414;28;20408;-87
2021/05/27 01:28:31;;;;;;;4.53;0.60;;;13.80;93.20;;;;;;5054494;28;20391;-89
2021/05/27 01:30:58;;;;;;;2.88;0.82;;;13.80;92.40;;;;;;5055854;28;20893;-87
2021/05/27 01:33:26;;;;;;;2.40;0.63;;;13.80;91.80;;;;;;5054835;28;20400;-86
2021/05/27 01:35:54;;;;;;;4.72;0.70;;;13.90;92.60;;;;;;5052156;28;20461;-84
2021/05/27 01:38:26;;;;;;;2.38;0.57;;;13.90;91.90;;;;;;5047464;28;20391;-84
2021/05/27 01:40:54;;;;;;;3.30;0.65;;;14.00;92.80;;;;;;5047706;28;20380;-88
2021/05/27 01:43:23;;;;;;;2.58;0.68;;;14.10;91.70;;;;;;5050601;28;20415;-84
2021/05/27 01:45:50;;;;;;;2.50;0.60;;;14.10;91.70;;;;;;5030605;28;20412;-86
2021/05/27 01:48:17;;;;;;;3.80;0.90;;;14.10;91.20;;;;;;5049777;28;21712;-86
2021/05/27 01:50:47;;;;;;;3.03;0.60;;;14.10;91.90;;;;;;5046556;28;20458;-87
2021/05/27 01:53:14;;;;;;;4.13;1.30;;;14.30;92.60;;;;;;5051919;28;20429;-85
2021/05/27 01:55:44;;;;;;;2.53;0.60;;;14.40;92.20;;;;;;5032851;28;20423;-86
2021/05/27 01:58:12;;;;;;;3.00;0.70;;;14.40;92.50;;;;;;5052001;28;21413;-83
2021/05/27 02:00:40;;;;;;;1.95;0.90;;;14.50;92.10;;;;;;5027414;28;20454;-83
2021/05/27 02:03:08;;;;;;;3.15;0.60;;;14.50;92.10;;;;;;5038982;28;20395;-86
2021/05/27 02:05:35;;;;;;;2.93;0.80;;;14.50;91.40;;;;;;5050749;28;20949;-86
2021/05/27 02:08:03;;;;;;;3.83;0.65;;;14.60;92.10;;;;;;5029191;28;20402;-84
2021/05/27 02:10:30;;;;;;;1.83;0.50;;;14.70;91.30;;;;;;5042927;28;20389;-86
2021/05/27 02:12:57;;;;;;;2.55;0.68;;;14.70;91.00;;;;;;5034486;28;20421;-83
2021/05/27 02:15:24;;;;;;;3.53;0.85;;;14.80;91.30;;;;;;5037118;28;20447;-84
2021/05/27 02:17:51;;;;;;;4.13;0.90;;;14.80;89.90;;;;;;5034005;28;20396;-86
2021/05/27 02:20:18;;;;;;;3.03;0.63;;;14.90;90.20;;;;;;5046864;28;20805;-87
2021/05/27 02:22:45;;;;;;;4.13;0.77;;;14.90;91.10;;;;;;5025787;28;20387;-89
2021/05/27 02:25:13;;;;;;;4.65;0.60;;;14.90;90.40;;;;;;5014549;28;20417;-86
2021/05/27 02:27:40;;;;;;;3.40;0.65;;;15.00;90.90;;;;;;5045519;28;20889;-86
2021/05/27 02:30:08;;;;;;;3.13;0.90;;;15.00;90.00;;;;;;5052975;28;20855;-87
2021/05/27 02:32:34;;;;;;;4.22;0.88;;;15.00;88.40;;;;;;5043722;28;20941;-87
2021/05/27 02:35:02;;;;;;;3.00;0.60;;;15.00;90.00;;;;;;5044544;28;21069;-88
2021/05/27 02:37:29;;;;;;;2.83;0.50;;;15.00;90.20;;;;;;5056566;28;20376;-85
2021/05/27 02:39:55;;;;;;;3.42;0.50;;;15.00;88.00;;;;;;5057077;28;20482;-87
2021/05/27 02:42:23;;;;;;;4.15;0.77;;;15.10;90.30;;;;;;5030450;28;20404;-88
2021/05/27 02:44:50;;;;;;;3.30;0.73;;;15.10;90.70;;;;;;5046808;28;20956;-87
2021/05/27 02:47:17;;;;;;;3.77;0.80;;;15.20;91.20;;;;;;5039481;28;20381;-86
2021/05/27 02:49:44;;;;;;;4.80;0.70;;;15.30;90.40;;;;;;5039551;28;20736;-85
2021/05/27 02:52:11;;;;;;;3.38;0.70;;;15.40;90.20;;;;;;5024363;28;20388;-86
2021/05/27 02:54:38;;;;;;;3.38;0.80;;;15.50;90.80;;;;;;5040831;28;20385;-86
2021/05/27 02:57:05;;;;;;;3.95;0.93;;;15.50;90.20;;;;;;5041936;28;20389;-85
2021/05/27 02:59:32;;;;;;;1.87;0.70;;;15.50;87.60;;;;;;5032311;28;20760;-84
2021/05/27 03:01:59;;;;;;;5.55;0.68;;;15.50;89.20;;;;;;5023682;28;20422;-84
2021/05/27 03:04:26;;;;;;;2.75;0.73;;;15.50;85.60;;;;;;5043286;28;20396;-85
2021/05/27 03:06:53;;;;;;;5.80;0.70;;;15.60;88.90;;;;;;5048937;28;20427;-87
2021/05/27 03:09:20;;;;;;;2.30;0.80;;;15.60;88.10;;;;;;5031816;28;20395;-88
2021/05/27 03:11:49;;;;;;;3.00;0.65;;;15.70;86.90;;;;;;5050895;28;20467;-86
2021/05/27 03:14:16;;;;;;;3.75;0.70;;;15.80;86.60;;;;;;5050461;28;20465;-83
2021/05/27 03:16:43;;;;;;;5.28;0.73;;;15.90;88.00;;;;;;5048009;28;20399;-85
2021/05/27 03:19:10;;;;;;;5.87;0.80;;;15.90;86.80;;;;;;5050860;28;20380;-82
2021/05/27 03:21:37;;;;;;;4.93;0.73;;;16.00;88.90;;;;;;5044032;28;20389;-84
2021/05/27 03:24:04;;;;;;;2.40;0.65;;;16.10;84.70;;;;;;5040380;28;20473;-83
2021/05/27 03:26:31;;;;;;;6.45;0.70;;;16.10;88.20;;;;;;5040772;28;20440;-84
2021/05/27 03:28:58;;;;;;;4.47;0.60;;;16.00;85.70;;;;;;5041435;28;20391;-86
2021/05/27 03:31:25;;;;;;;1.95;0.70;;;16.10;86.30;;;;;;5029513;28;20431;-82
2021/05/27 03:33:52;;;;;;;1.67;0.52;;;16.10;83.50;;;;;;5028308;28;20387;-83
2021/05/27 03:36:19;;;;;;;3.05;0.60;;;16.00;85.90;;;;;;5036754;28;20391;-84
2021/05/27 03:38:46;;;;;;;2.35;0.50;;;16.00;86.70;;;;;;5041025;28;20398;-82
2021/05/27 03:41:13;;;;;;;2.03;0.60;;;16.10;85.80;;;;;;5045249;28;20478;-85
2021/05/27 03:43:40;;;;;;;2.60;0.50;;;16.10;86.60;;;;;;5046642;28;20382;-83
2021/05/27 03:46:07;;;;;;;3.80;0.80;;;16.20;87.40;;;;;;5046729;28;20487;-82
2021/05/27 03:48:34;;;;;;;2.95;0.60;;;16.20;86.80;;;;;;5037425;28;20391;-84
2021/05/27 03:51:01;;;;;;;3.55;0.77;;;16.20;86.30;;;;;;5042622;28;20462;-82
2021/05/27 03:53:28;;;;;;;2.75;0.63;;;16.20;87.20;;;;;;5045389;28;20498;-84
2021/05/27 03:55:54;;;;;;;3.42;1.00;;;16.20;84.90;;;;;;5038529;28;20898;-82
2021/05/27 04:01:06;;;;;;;3.03;0.68;;;16.10;88.30;;;;;;5045893;28;20414;-82
2021/05/27 04:09:04;;;;;;;2.77;0.83;;;16.10;86.80;;;;;;5043932;28;20402;-82
2021/05/27 04:11:31;;;;;;;1.60;0.40;;;16.10;88.80;;;;;;5044490;28;21021;-83
2021/05/27 04:13:58;;;;;;;3.28;0.68;;;16.10;87.50;;;;;;5040472;28;20400;-83
2021/05/27 04:16:25;;;;;;;4.93;0.75;;;16.10;88.40;;;;;;5046314;28;20388;-83
2021/05/27 04:18:53;;;;;;;2.80;0.65;;;16.10;86.00;;;;;;5046694;28;20386;-82
2021/05/27 04:21:20;;;;;;;3.85;0.57;;;16.10;88.90;;;;;;5030728;28;20886;-82
2021/05/27 04:23:47;;;;;;;5.22;0.65;;;16.10;88.50;;;;;;5045580;28;20411;-82
2021/05/27 04:26:16;;;;;;;2.88;0.57;;;16.10;87.40;;;;;;5046320;28;20423;-85
2021/05/27 04:28:47;;;;;;;3.33;0.55;;;16.10;86.60;;;;;;5044830;28;20433;-82
2021/05/27 04:31:18;;;;;;;2.17;0.50;;;16.10;86.80;;;;;;5047079;28;20804;-85
2021/05/27 04:33:47;;;;;;;1.52;0.50;;;16.00;87.20;;;;;;5029660;28;20400;-82
2021/05/27 04:36:19;;;;;;;3.42;0.52;;;16.00;86.90;;;;;;5054477;28;20834;-82
2021/05/27 04:38:50;;;;;;;2.33;0.50;;;16.00;88.50;;;;;;5056638;28;20367;-81
2021/05/27 04:41:18;;;;;;;2.10;0.30;;;16.00;87.80;;;;;;5046968;28;20759;-82
2021/05/27 04:43:55;;;;;;;4.30;0.47;;;16.00;88.20;;;;;;5048089;28;20405;-83
2021/05/27 04:46:23;;;;;;;1.08;0.35;;;16.00;86.90;;;;;;5046371;28;20415;-85
2021/05/27 04:48:50;;;;;;;3.90;0.70;;;15.90;88.30;;;;;;5046500;28;20466;-82
2021/05/27 04:51:16;;;;;;;2.63;0.50;;;15.90;88.00;;;;;;5043549;28;20425;-84
2021/05/27 04:53:43;;;;;;;1.98;0.68;;;15.90;86.80;;;;;;5043252;28;20383;-84
2021/05/27 04:56:11;;;;;;;3.20;0.43;;;15.90;87.40;;;;;;5037638;28;20388;-83
2021/05/27 04:58:37;;;;;;;2.90;0.45;;;15.80;87.30;;;;;;5044317;28;20421;-86
2021/05/27 05:01:05;;;;;;;3.53;0.50;;;15.80;89.00;;;;;;5046548;28;20942;-83
2021/05/27 05:03:31;;;;;;;3.13;0.70;;;15.70;88.40;;;;;;5040867;28;20435;-84
2021/05/27 05:05:58;;;;;;;2.25;0.47;;;15.70;88.70;;;;;;5040841;28;20406;-83
2021/05/27 05:08:26;;;;;;;2.72;0.73;;;15.70;86.30;;;;;;5043934;28;20490;-85
2021/05/27 05:10:53;;;;;;;2.25;0.52;;;15.60;89.90;;;;;;5030584;28;20396;-81
2021/05/27 05:13:20;;;;;;;1.50;0.52;;;15.60;89.10;;;;;;5039561;28;20400;-84
2021/05/27 05:15:49;;;;;;;1.73;0.50;;;15.60;90.00;;;;;;5015951;28;20408;-83
2021/05/27 05:18:16;;;;;;;4.53;0.70;;;15.50;90.70;;;;;;5010905;28;20389;-82
2021/05/27 05:20:51;;;;;;;2.03;0.60;;;15.50;91.10;;;;;;5048845;28;20380;-83
2021/05/27 05:23:19;;;;;;;2.33;0.73;;;15.40;90.30;;;;;;5044286;28;21094;-83
2021/05/27 05:25:46;;;;;;;3.30;0.33;;;15.40;91.00;;;;;;5037167;28;20768;-82
2021/05/27 05:28:14;;;;;;;1.38;0.63;;;15.40;90.10;;;;;;5037897;28;20818;-84
2021/05/27 05:30:42;;;;;;;1.60;0.40;;;15.40;90.70;;;;;;5043864;28;20475;-83
2021/05/27 05:33:10;;;;;;;1.88;0.45;;;15.30;90.50;;;;;;5044316;28;20396;-80
2021/05/27 05:35:38;;;;;;;2.00;0.45;;;15.20;91.50;;;;;;5047793;28;20822;-83
2021/05/27 05:38:06;;;;;;;1.65;0.60;;;15.10;91.80;;;;;;5028925;28;20430;-82
2021/05/27 05:40:35;;;;;;;1.42;0.40;;;15.00;92.10;;;;;;5064808;28;20401;-82
2021/05/27 05:43:03;;;;;;;1.50;0.40;;;15.00;92.20;;;;;;5046102;28;20372;-82
2021/05/27 05:45:30;;;;;;;3.30;0.47;;;15.00;92.00;;;;;;5027850;28;20389;-81
2021/05/27 05:47:59;;;;;;;2.00;0.55;;;14.90;92.60;;;;;;5042016;28;20483;-81
2021/05/27 05:53:13;;;;;;;2.67;0.50;;;14.90;92.70;;;;;;5048517;28;20406;-82
2021/05/27 05:55:40;;;;;;;2.83;0.50;;;14.80;93.30;;;;;;5048132;28;20460;-82
2021/05/27 05:58:08;;;;;;;2.30;0.50;;;14.90;92.50;;;;;;5028857;28;20381;-84
2021/05/27 06:00:35;;;;;;;1.73;0.40;;;14.80;90.70;;;;;;5028631;28;20448;-82
2021/05/27 06:03:04;;;;;;;1.95;0.55;;;14.80;91.30;;;;;;5028722;28;20385;-82
2021/05/27 06:05:34;;;;;;;3.42;0.52;;;14.80;91.40;;;;;;5038297;28;20831;-83
2021/05/27 06:08:01;;;;;;;1.80;0.70;;;14.70;91.80;;;;;;5050204;28;20941;-83
2021/05/27 06:10:28;;;;;;;2.38;0.50;;;14.70;92.40;;;;;;5041857;28;20490;-82
2021/05/27 06:12:57;;;;;;;1.95;0.60;;;14.60;93.10;;;;;;5032841;28;20492;-83
2021/05/27 06:15:25;;;;;;;1.08;0.40;;;14.40;93.40;;;;;;5041290;28;20399;-83
2021/05/27 06:17:53;;;;;;;1.70;0.60;;;14.40;93.30;;;;;;5056925;28;20417;-82
2021/05/27 06:20:22;;;;;;;2.03;0.70;;;14.30;92.90;;;;;;5039404;28;20393;-83
2021/05/27 06:22:50;;;;;;;1.55;0.60;;;14.20;93.90;;;;;;5033688;28;20393;-84
2021/05/27 06:25:18;;;;;;;2.78;0.50;;;14.20;94.00;;;;;;5051302;28;20413;-82
2021/05/27 06:27:45;;;;;;;2.38;0.63;;;14.10;94.40;;;;;;5052673;28;20387;-84
2021/05/27 06:30:13;;;;;;;2.63;0.98;;;14.00;95.20;;;;;;5043417;28;20397;-85
2021/05/27 06:32:40;;;;;;;1.77;0.65;;;13.90;95.50;;;;;;5021225;28;20745;-84
2021/05/27 06:35:11;;;;;;;2.78;0.82;;;13.80;95.20;;;;;;5040571;28;20364;-83
2021/05/27 06:37:39;;;;;;;1.50;0.70;;;13.70;95.80;;;;;;5053043;28;20372;-83
2021/05/27 06:40:27;;;;;;;2.42;0.65;;;13.70;96.00;;;;;;5048327;28;20377;-83
2021/05/27 06:42:55;;;;;;;2.92;0.80;;;13.60;95.00;;;;;;5042016;28;20414;-83
2021/05/27 06:45:23;;;;;;;2.47;0.73;;;13.50;95.50;;;;;;5042418;28;20387;-83
2021/05/27 06:47:51;;;;;;;2.83;0.80;;;13.50;96.10;;;;;;5048464;28;20943;-85
2021/05/27 06:50:36;;;;;;;2.50;0.70;;;13.30;96.10;;;;;;5016403;28;20451;-85
2021/05/27 06:53:08;;;;;;;4.20;0.80;;;13.30;95.50;;;;;;5057327;28;20442;-82
2021/05/27 06:55:37;;;;;;;3.60;0.80;;;13.30;95.30;;;;;;5044390;28;20391;-82
2021/05/27 06:58:05;;;;;;;5.75;1.05;;;13.20;96.00;;;;;;5044154;28;20752;-82
2021/05/27 07:00:33;;;;;;;3.17;1.35;;;13.20;95.70;;;;;;5042909;28;20373;-82
2021/05/27 07:03:01;;;;;;;2.80;0.80;;;13.10;95.50;;;;;;5020324;28;20393;-83
2021/05/27 07:05:28;;;;;;;2.58;1.02;;;13.10;95.90;;;;;;5034634;28;20431;-85
2021/05/27 07:07:57;;;;;;;2.20;0.95;;;13.00;95.90;;;;;;5043874;28;20396;-84
2021/05/27 07:10:24;;;;;;;2.60;0.90;;;13.00;96.20;;;;;;5032700;28;20686;-83
2021/05/27 07:12:55;;;;;;;4.10;0.95;;;12.90;96.10;;;;;;5032719;28;20386;-84
2021/05/27 07:15:24;;;;;;;3.28;0.80;;;12.80;96.40;;;;;;5038119;28;20742;-83
2021/05/27 07:17:52;;;;;;;2.30;1.00;;;12.70;96.80;;;;;;5041163;28;20442;-84
2021/05/27 07:20:21;;;;;;;4.85;0.85;;;12.60;96.30;;;;;;5052001;28;20376;-83
2021/05/27 07:22:49;;;;;;;2.90;0.80;;;12.60;96.60;;;;;;5038079;28;20767;-82
2021/05/27 07:25:16;;;;;;;2.75;0.80;;;12.50;96.70;;;;;;5045290;28;20480;-82
2021/05/27 07:27:44;;;;;;;3.78;1.25;;;12.60;95.70;;;;;;5048048;28;20897;-83
2021/05/27 07:30:11;;;;;;;2.93;0.83;;;12.60;95.90;;;;;;5045681;28;20412;-83
2021/05/27 07:32:38;;;;;;;3.22;0.90;;;12.60;96.00;;;;;;5039218;28;20397;-84
2021/05/27 07:35:06;;;;;;;4.05;0.90;;;12.50;96.20;;;;;;5047274;28;20882;-82
2021/05/27 07:37:33;;;;;;;3.60;0.90;;;12.50;96.00;;;;;;5050285;28;20384;-82
2021/05/27 07:40:00;;;;;;;2.30;0.77;;;12.40;95.90;;;;;;5052264;28;20524;-85
2021/05/27 07:42:27;;;;;;;2.58;0.63;;;12.40;96.70;;;;;;5051198;28;20407;-88
2021/05/27 07:44:54;;;;;;;2.45;1.00;;;12.40;96.80;;;;;;5035212;28;20481;-83
2021/05/27 07:47:21;;;;;;;2.70;0.90;;;12.30;96.40;;;;;;5023880;28;20408;-83
2021/05/27 07:49:49;;;;;;;2.70;0.90;;;12.30;96.90;;;;;;5039365;28;20880;-84
2021/05/27 07:52:16;;;;;;;3.07;1.10;;;12.30;96.60;;;;;;5051403;28;20468;-83
2021/05/27 07:54:43;;;;;;;2.88;0.77;;;12.20;97.20;;;;;;5057253;28;20441;-85
2021/05/27 07:57:11;;;;;;;2.42;0.80;;;12.20;97.80;;;;;;5037180;28;20428;-86
2021/05/27 07:59:38;;;;;;;2.15;1.20;;;12.10;97.60;;;;;;5034458;28;20397;-84
2021/05/27 08:02:05;;;;;;;1.92;0.90;;;12.10;97.00;;;;;;5056270;28;20380;-84
2021/05/27 08:04:32;;;;;;;2.40;1.15;;;12.10;97.70;;;;;;5058780;28;20380;-86
2021/05/27 08:06:59;;;;;;;2.05;0.95;;;12.10;98.60;;;;;;5037696;28;20425;-82
2021/05/27 08:09:26;;;;;;;2.27;1.07;;;12.00;98.50;;;;;;5054518;28;20414;-82
2021/05/27 08:11:53;;;;;;;3.75;1.50;;;12.00;99.10;;;;;;5052977;28;20424;-84
2021/05/27 08:14:20;;;;;;;4.57;2.00;;;11.90;98.50;;;;;;5062280;28;20744;-85
2021/05/27 08:16:47;;;;;;;3.40;2.50;;;11.90;99.50;;;;;;5055513;28;21062;-86
2021/05/27 08:19:14;;;;;;;5.28;3.78;;;11.80;99.80;;;;;;5055348;28;20384;-85
2021/05/27 08:21:41;;;;;;;8.85;5.68;;;11.80;99.90;;;;;;5046407;28;20373;-84
2021/05/27 08:24:08;;;;;;;4.63;3.95;;;11.80;99.90;;;;;;5046655;28;20378;-84
2021/05/27 08:26:35;;;;;;;7.97;3.65;;;11.80;99.90;;;;;;5053364;28;20405;-83
2021/05/27 08:29:03;;;;;;;4.15;2.65;;;11.70;99.90;;;;;;5033864;28;20891;-84
2021/05/27 08:31:31;;;;;;;5.32;2.30;;;11.60;99.90;;;;;;5012438;28;20440;-83
2021/05/27 08:33:58;;;;;;;5.35;2.05;;;11.60;99.90;;;;;;5021395;28;20911;-83
2021/05/27 08:36:25;;;;;;;3.05;1.50;;;11.60;99.90;;;;;;5031010;28;20871;-85
2021/05/27 08:38:52;;;;;;;3.55;1.42;;;11.50;99.90;;;;;;5031629;28;21762;-86
2021/05/27 08:41:20;;;;;;;3.25;1.75;;;11.50;99.90;;;;;;5033552;28;20381;-83
2021/05/27 08:43:50;;;;;;;3.25;1.55;;;11.40;99.90;;;;;;5046130;28;20379;-83
2021/05/27 08:46:21;;;;;;;3.10;1.58;;;11.30;99.90;;;;;;5050098;28;20400;-85
2021/05/27 08:48:48;;;;;;;4.30;2.00;;;11.20;99.90;;;;;;5048016;28;20467;-84
2021/05/27 08:51:16;;;;;;;3.50;1.83;;;11.20;99.90;;;;;;5032406;28;20427;-83
2021/05/27 08:53:44;;;;;;;3.80;1.70;;;11.20;99.90;;;;;;5042257;28;20444;-84
2021/05/27 08:56:12;;;;;;;4.63;1.83;;;11.20;99.90;;;;;;5050916;28;20422;-82
2021/05/27 08:58:43;;;;;;;3.90;1.85;;;11.20;99.90;;;;;;5030030;28;20436;-83
2021/05/27 09:01:10;;;;;;;4.03;1.92;;;11.20;99.90;;;;;;5039455;28;20384;-83
2021/05/27 09:03:46;;;;;;;4.38;1.95;;;11.20;99.90;;;;;;5043444;28;20376;-83
2021/05/27 09:06:13;;;;;;;3.03;2.10;;;11.20;99.90;;;;;;5030255;28;20756;-82
2021/05/27 09:08:41;;;;;;;3.17;2.35;;;11.20;99.90;;;;;;5016979;28;20524;-82
2021/05/27 09:11:09;;;;;;;3.60;1.80;;;11.30;99.90;;;;;;5031659;28;20888;-85
2021/05/27 09:13:57;;;;;;;6.65;2.58;;;11.20;99.90;;;;;;5041179;28;20390;-81
2021/05/27 09:16:28;;;;;;;5.63;2.20;;;11.20;99.90;;;;;;5050428;28;20501;-82
2021/05/27 09:18:55;;;;;;;5.55;2.20;;;11.20;99.90;;;;;;5040752;28;20443;-84
2021/05/27 09:21:37;;;;;;;3.30;1.88;;;11.20;99.90;;;;;;5018517;28;20386;-83
2021/05/27 09:24:04;;;;;;;3.33;1.73;;;11.20;99.90;;;;;;5032799;28;20381;-83
2021/05/27 09:26:32;;;;;;;3.08;1.77;;;11.10;99.90;;;;;;5025388;28;20432;-82
2021/05/27 09:29:13;;;;;;;3.75;1.60;;;11.10;99.90;;;;;;5043727;28;20384;-83
2021/05/27 09:32:04;;;;;;;2.67;1.30;;;11.10;99.90;;;;;;5049648;28;20390;-82
2021/05/27 09:34:44;;;;;;;3.78;1.58;;;11.10;99.90;;;;;;5038284;28;20682;-83
2021/05/27 09:37:23;;;;;;;4.60;1.38;;;11.00;99.90;;;;;;5029512;28;20487;-83
2021/05/27 09:39:51;;;;;;;4.20;1.65;;;11.00;99.90;;;;;;5044889;28;20391;-83
2021/05/27 09:42:18;;;;;;;3.05;1.60;;;11.00;99.90;;;;;;5049861;28;20438;-84
2021/05/27 09:44:46;;;;;;;7.78;1.63;;;10.90;99.90;;;;;;5035270;28;20390;-84
2021/05/27 09:47:13;;;;;;;3.80;1.70;;;10.90;99.90;;;;;;5046719;28;20404;-83
2021/05/27 09:50:00;;;;;;;3.05;1.45;;;10.80;99.90;;;;;;5032629;28;20465;-83
2021/05/27 09:52:38;;;;;;;3.75;1.50;;;10.80;99.90;;;;;;5030235;28;20420;-83
2021/05/27 09:55:10;;;;;;;3.65;1.50;;;10.70;99.90;;;;;;5032542;28;20463;-80
2021/05/27 09:57:39;;;;;;;3.15;1.70;;;10.70;99.90;;;;;;5035924;28;20508;-82
2021/05/27 10:00:23;;;;;;;3.08;1.55;;;10.60;99.90;;;;;;5039640;28;20396;-82
2021/05/27 10:02:51;;;;;;;5.25;1.63;;;10.60;99.90;;;;;;5035763;28;20380;-83
2021/05/27 10:05:19;;;;;;;4.55;1.98;;;10.50;99.90;;;;;;5042523;28;20494;-83
2021/05/27 10:07:51;;;;;;;3.15;1.52;;;10.50;99.90;;;;;;5037945;28;20406;-84
2021/05/27 10:10:21;;;;;;;3.88;2.00;;;10.50;99.90;;;;;;5041586;28;20419;-84
2021/05/27 10:12:53;;;;;;;6.20;1.60;;;10.50;99.90;;;;;;5040564;28;20393;-83
2021/05/27 10:15:25;;;;;;;3.90;1.80;;;10.40;99.90;;;;;;5037283;28;20369;-83
2021/05/27 10:17:56;;;;;;;3.58;1.73;;;10.40;99.90;;;;;;5034178;28;20904;-85
2021/05/27 10:20:25;;;;;;;4.82;1.85;;;10.30;99.90;;;;;;5049300;28;20359;-84
2021/05/27 10:23:04;;;;;;;5.05;1.75;;;10.30;99.90;;;;;;5040911;28;20384;-82
2021/05/27 10:25:31;;;;;;;4.40;1.92;;;10.30;99.90;;;;;;5049853;28;20751;-85
2021/05/27 10:28:02;;;;;;;5.18;1.85;;;10.30;99.90;;;;;;5050278;28;20459;-84
2021/05/27 10:30:30;;;;;;;3.85;1.88;;;10.30;99.90;;;;;;5043874;28;20944;-84
2021/05/27 10:33:03;;;;;;;3.55;1.60;;;10.30;99.90;;;;;;5033663;28;20419;-82
2021/05/27 10:36:02;;;;;;;5.50;1.35;;;10.20;99.90;;;;;;5041935;28;20382;-85
2021/05/27 10:38:41;;;;;;;3.60;1.30;;;10.20;99.90;;;;;;5040714;28;20384;-85
2021/05/27 10:41:12;;;;;;;4.38;1.30;;;10.20;99.90;;;;;;5043363;28;20452;-82
2021/05/27 10:44:02;;;;;;;5.88;1.60;;;10.20;99.90;;;;;;5045553;28;20392;-85
2021/05/27 10:46:30;;;;;;;4.63;1.48;;;10.20;99.90;;;;;;5023950;28;20770;-83
2021/05/27 10:48:57;;;;;;;3.67;1.30;;;10.20;99.90;;;;;;5046796;28;20494;-84
2021/05/27 10:51:34;;;;;;;4.35;1.55;;;10.20;99.90;;;;;;5031373;28;20400;-84
2021/05/27 10:54:08;;;;;;;3.00;1.65;;;10.20;99.90;;;;;;5046428;28;20894;-84
2021/05/27 10:56:35;;;;;;;3.75;1.75;;;10.20;99.90;;;;;;5039719;28;20538;-84
2021/05/27 10:59:06;;;;;;;2.83;1.52;;;10.20;99.90;;;;;;5032953;28;20466;-86
2021/05/27 11:01:34;;;;;;;4.15;1.27;;;10.20;99.90;;;;;;5047334;28;20453;-85
2021/05/27 11:04:02;;;;;;;3.05;1.40;;;10.20;99.90;;;;;;5053557;28;20394;-86
2021/05/27 11:06:35;;;;;;;4.13;1.33;;;10.20;99.90;;;;;;5052596;28;20414;-84
2021/05/27 11:09:13;;;;;;;3.05;1.35;;;10.20;99.90;;;;;;5053981;28;20408;-83
2021/05/27 11:12:11;;;;;;;3.35;1.50;;;10.10;99.90;;;;;;5034858;28;20385;-83
2021/05/27 11:14:45;;;;;;;4.05;1.40;;;10.10;99.90;;;;;;5032206;28;20483;-83
2021/05/27 11:17:15;;;;;;;4.80;1.70;;;10.10;99.90;;;;;;5034832;28;20375;-83
2021/05/27 11:20:07;;;;;;;2.70;1.37;;;10.10;99.90;;;;;;5034228;28;20388;-84
2021/05/27 11:25:10;;;;;;;2.47;1.00;;;10.00;99.90;;;;;;5043805;28;20751;-86
2021/05/27 11:27:39;;;;;;;4.10;1.00;;;10.10;99.90;;;;;;5047114;28;20404;-87
2021/05/27 11:30:23;;;;;;;2.55;1.25;;;10.10;99.90;;;;;;5035583;28;20428;-88
2021/05/27 11:32:53;;;;;;;1.90;0.90;;;10.10;99.90;;;;;;5027453;28;20407;-84
2021/05/27 11:35:24;;;;;;;3.78;1.50;;;10.10;99.90;;;;;;5050505;28;20384;-86
2021/05/27 11:37:53;;;;;;;2.85;1.35;;;10.10;99.90;;;;;;5051076;28;20367;-87
2021/05/27 11:40:23;;;;;;;2.57;1.10;;;10.10;99.90;;;;;;5048762;28;21028;-87
2021/05/27 11:42:55;;;;;;;2.63;0.90;;;10.10;99.90;;;;;;5049856;28;20384;-85
2021/05/27 11:45:24;;;;;;;1.83;0.87;;;10.10;99.90;;;;;;5031223;28;20437;-84
2021/05/27 11:48:12;;;;;;;2.75;1.00;;;10.10;99.90;;;;;;5031656;28;20468;-85
2021/05/27 11:50:39;;;;;;;1.95;0.95;;;10.10;99.90;;;;;;5034015;28;20697;-88
2021/05/27 11:53:06;;;;;;;4.20;0.93;;;10.20;99.90;;;;;;5052709;28;20926;-85
2021/05/27 11:55:37;;;;;;;2.67;0.77;;;10.10;99.90;;;;;;5050767;28;20382;-84
2021/05/27 11:58:05;;;;;;;2.63;0.70;;;10.20;99.90;;;;;;5038988;28;20892;-86
2021/05/27 12:00:33;;;;;;;2.97;1.00;;;10.20;99.90;;;;;;5051344;28;20399;-89
2021/05/27 12:03:00;;;;;;;1.40;0.70;;;10.30;99.90;;;;;;5022828;28;20492;-85
2021/05/27 12:05:33;;;;;;;3.25;0.82;;;10.30;99.90;;;;;;5014632;28;20397;-84
2021/05/27 12:08:10;;;;;;;2.00;0.73;;;10.40;99.90;;;;;;5031256;28;20451;-84
2021/05/27 12:10:46;;;;;;;2.83;0.88;;;10.40;99.90;;;;;;5032507;28;20880;-87
2021/05/27 12:13:22;;;;;;;2.22;0.70;;;10.40;99.90;;;;;;5041207;28;20927;-88
2021/05/27 12:15:51;;;;;;;1.13;0.70;;;10.40;99.90;;;;;;5035042;28;20399;-87
2021/05/27 12:18:21;;;;;;;2.30;0.60;;;10.30;99.90;;;;;;5032744;28;20406;-86
2021/05/27 12:20:50;;;;;;;1.17;0.65;;;10.40;99.90;;;;;;5052685;28;20498;-85
2021/05/27 12:23:19;;;;;;;2.30;0.75;;;10.50;99.90;;;;;;5025437;28;20449;-86
2021/05/27 12:25:52;;;;;;;2.90;0.80;;;10.50;99.90;;;;;;5041062;28;20517;-88
2021/05/27 12:28:27;;;;;;;2.17;0.65;;;10.50;99.90;;;;;;5046121;28;20498;-91
2021/05/27 12:30:55;;;;;;;2.90;0.85;;;10.50;99.90;;;;;;5033888;28;20396;-86
2021/05/27 12:33:27;;;;;;;3.28;1.00;;;10.50;99.90;;;;;;5036064;28;20396;-92
2021/05/27 12:35:57;;;;;;;2.33;0.75;;;10.40;99.90;;;;;;5041347;28;20444;-88
2021/05/27 12:38:29;;;;;;;0.90;0.68;;;10.40;99.90;;;;;;5047759;28;20392;-88
2021/05/27 12:41:01;;;;;;;1.75;1.08;;;10.40;99.90;;;;;;5059016;28;20395;-90
2021/05/27 12:43:34;;;;;;;3.03;1.33;;;10.30;99.90;;;;;;5059136;28;20442;-87
2021/05/27 12:46:02;;;;;;;3.33;1.20;;;10.30;99.90;;;;;;5058534;28;20403;-90
2021/05/27 12:48:33;;;;;;;2.88;0.90;;;10.30;99.90;;;;;;5057514;28;20411;-87
2021/05/27 12:51:07;;;;;;;2.60;1.48;;;10.20;99.90;;;;;;5054951;28;20379;-85
2021/05/27 12:53:41;;;;;;;3.15;1.17;;;10.10;99.90;;;;;;5048379;28;20394;-85
2021/05/27 12:56:12;;;;;;;4.05;1.23;;;10.10;99.90;;;;;;5046071;28;20396;-85
2021/05/27 12:58:42;;;;;;;2.92;1.40;;;10.10;99.90;;;;;;5048716;28;20426;-89
2021/05/27 13:01:10;;;;;;;4.57;1.48;;;10.10;99.90;;;;;;5031365;28;20857;-87
2021/05/27 13:03:52;;;;;;;2.53;1.00;;;10.00;99.90;;;;;;5049077;28;20388;-86
2021/05/27 13:06:22;;;;;;;3.08;1.05;;;10.00;99.90;;;;;;5051005;28;20407;-88
2021/05/27 13:09:01;;;;;;;2.43;1.23;;;10.00;99.90;;;;;;5054230;28;20925;-86
2021/05/27 13:11:33;;;;;;;3.20;1.55;;;10.00;99.90;;;;;;5056079;28;20404;-89
2021/05/27 13:14:19;;;;;;;3.70;1.33;;;9.90;99.90;;;;;;5056358;28;20371;-86